sensor_id;sensor_type;location;lat;lon;timestamp;P1;durP1;ratioP1;P2;durP2;ratioP2
34200;SDS011;20469;55.638;37.670;2022-12-29T00:00:10;6.63;;;1.75;;
34200;SDS011;20469;55.638;37.670;2022-12-29T00:02:39;4.22;;;1.50;;
34200;SDS011;20469;55.638;37.670;2022-12-29T00:05:06;3.95;;;1.27;;
34200;SDS011;20469;55.638;37.670;2022-12-29T00:07:34;4.93;;;1.58;;
34200;SDS011;20469;55.638;37.670;2022-12-29T00:10:01;4.95;;;1.27;;
34200;SDS011;20469;55.638;37.670;2022-12-29T00:12:28;2.95;;;1.10;;
34200;SDS011;20469;55.638;37.670;2022-12-29T00:15:16;4.47;;;1.30;;
34200;SDS011;20469;55.638;37.670;2022-12-29T00:18:01;5.10;;;1.60;;
34200;SDS011;20469;55.638;37.670;2022-12-29T00:20:29;4.35;;;1.30;;
34200;SDS011;20469;55.638;37.670;2022-12-29T00:23:17;5.93;;;1.92;;
34200;SDS011;20469;55.638;37.670;2022-12-29T00:26:03;5.85;;;1.48;;
34200;SDS011;20469;55.638;37.670;2022-12-29T00:28:54;6.68;;;1.33;;
34200;SDS011;20469;55.638;37.670;2022-12-29T00:31:40;3.00;;;1.20;;
34200;SDS011;20469;55.638;37.670;2022-12-29T00:34:26;3.45;;;1.30;;
34200;SDS011;20469;55.638;37.670;2022-12-29T00:37:11;4.05;;;1.20;;
34200;SDS011;20469;55.638;37.670;2022-12-29T00:39:39;3.05;;;1.10;;
34200;SDS011;20469;55.638;37.670;2022-12-29T00:42:25;1.95;;;1.08;;
34200;SDS011;20469;55.638;37.670;2022-12-29T00:45:11;2.63;;;1.02;;
34200;SDS011;20469;55.638;37.670;2022-12-29T00:47:38;5.38;;;1.17;;
34200;SDS011;20469;55.638;37.670;2022-12-29T00:50:05;4.28;;;1.45;;
34200;SDS011;20469;55.638;37.670;2022-12-29T00:52:32;6.45;;;1.90;;
34200;SDS011;20469;55.638;37.670;2022-12-29T00:55:00;4.65;;;1.50;;
34200;SDS011;20469;55.638;37.670;2022-12-29T00:57:29;4.35;;;1.60;;
34200;SDS011;20469;55.638;37.670;2022-12-29T00:59:56;3.88;;;1.80;;
34200;SDS011;20469;55.638;37.670;2022-12-29T01:02:23;5.97;;;1.55;;
34200;SDS011;20469;55.638;37.670;2022-12-29T01:04:51;5.57;;;1.58;;
34200;SDS011;20469;55.638;37.670;2022-12-29T01:07:18;4.70;;;1.38;;
34200;SDS011;20469;55.638;37.670;2022-12-29T01:09:45;4.75;;;1.23;;
34200;SDS011;20469;55.638;37.670;2022-12-29T01:12:32;4.93;;;1.38;;
34200;SDS011;20469;55.638;37.670;2022-12-29T01:15:08;2.67;;;1.20;;
34200;SDS011;20469;55.638;37.670;2022-12-29T01:17:36;4.03;;;1.40;;
34200;SDS011;20469;55.638;37.670;2022-12-29T01:20:04;2.00;;;1.10;;
34200;SDS011;20469;55.638;37.670;2022-12-29T01:22:32;2.42;;;1.13;;
34200;SDS011;20469;55.638;37.670;2022-12-29T01:24:59;3.78;;;1.10;;
34200;SDS011;20469;55.638;37.670;2022-12-29T01:27:27;2.78;;;1.17;;
34200;SDS011;20469;55.638;37.670;2022-12-29T01:29:54;8.70;;;1.73;;
34200;SDS011;20469;55.638;37.670;2022-12-29T01:32:21;3.40;;;1.23;;
34200;SDS011;20469;55.638;37.670;2022-12-29T01:34:49;3.25;;;1.38;;
34200;SDS011;20469;55.638;37.670;2022-12-29T01:37:16;3.58;;;1.10;;
34200;SDS011;20469;55.638;37.670;2022-12-29T01:39:43;4.05;;;1.35;;
34200;SDS011;20469;55.638;37.670;2022-12-29T01:42:19;4.57;;;1.33;;
34200;SDS011;20469;55.638;37.670;2022-12-29T01:45:00;4.13;;;1.38;;
34200;SDS011;20469;55.638;37.670;2022-12-29T01:52:58;8.48;;;1.63;;
34200;SDS011;20469;55.638;37.670;2022-12-29T01:55:36;5.10;;;1.40;;
34200;SDS011;20469;55.638;37.670;2022-12-29T01:58:09;3.30;;;1.40;;
34200;SDS011;20469;55.638;37.670;2022-12-29T02:00:40;5.47;;;1.50;;
34200;SDS011;20469;55.638;37.670;2022-12-29T02:03:07;8.05;;;1.77;;
34200;SDS011;20469;55.638;37.670;2022-12-29T02:05:43;7.47;;;1.70;;
34200;SDS011;20469;55.638;37.670;2022-12-29T02:08:22;5.63;;;1.40;;
34200;SDS011;20469;55.638;37.670;2022-12-29T02:10:52;6.07;;;1.30;;
34200;SDS011;20469;55.638;37.670;2022-12-29T02:13:23;5.45;;;1.85;;
34200;SDS011;20469;55.638;37.670;2022-12-29T02:21:34;11.60;;;1.55;;
34200;SDS011;20469;55.638;37.670;2022-12-29T02:44:04;7.13;;;2.10;;
34200;SDS011;20469;55.638;37.670;2022-12-29T02:54:32;5.30;;;1.90;;
34200;SDS011;20469;55.638;37.670;2022-12-29T02:57:26;7.05;;;2.05;;
34200;SDS011;20469;55.638;37.670;2022-12-29T03:07:57;6.15;;;2.00;;
34200;SDS011;20469;55.638;37.670;2022-12-29T03:13:23;7.10;;;2.22;;
34200;SDS011;20469;55.638;37.670;2022-12-29T03:16:35;6.00;;;2.00;;
34200;SDS011;20469;55.638;37.670;2022-12-29T03:19:28;5.88;;;1.95;;
34200;SDS011;20469;55.638;37.670;2022-12-29T03:22:08;5.20;;;1.98;;
34200;SDS011;20469;55.638;37.670;2022-12-29T03:25:01;5.32;;;1.98;;
34200;SDS011;20469;55.638;37.670;2022-12-29T03:27:38;6.35;;;1.85;;
34200;SDS011;20469;55.638;37.670;2022-12-29T03:30:21;5.55;;;2.22;;
34200;SDS011;20469;55.638;37.670;2022-12-29T03:32:51;10.93;;;2.03;;
34200;SDS011;20469;55.638;37.670;2022-12-29T03:35:22;7.43;;;2.20;;
34200;SDS011;20469;55.638;37.670;2022-12-29T03:37:59;6.15;;;2.08;;
34200;SDS011;20469;55.638;37.670;2022-12-29T03:40:47;9.00;;;2.53;;
34200;SDS011;20469;55.638;37.670;2022-12-29T03:43:17;5.80;;;1.70;;
34200;SDS011;20469;55.638;37.670;2022-12-29T03:45:45;7.30;;;2.28;;
34200;SDS011;20469;55.638;37.670;2022-12-29T03:48:12;6.60;;;1.85;;
34200;SDS011;20469;55.638;37.670;2022-12-29T03:50:39;6.28;;;1.83;;
34200;SDS011;20469;55.638;37.670;2022-12-29T03:53:07;7.40;;;2.10;;
34200;SDS011;20469;55.638;37.670;2022-12-29T03:55:34;7.07;;;2.10;;
34200;SDS011;20469;55.638;37.670;2022-12-29T03:58:01;7.68;;;2.13;;
34200;SDS011;20469;55.638;37.670;2022-12-29T04:00:28;6.22;;;1.70;;
34200;SDS011;20469;55.638;37.670;2022-12-29T04:02:55;8.77;;;2.33;;
34200;SDS011;20469;55.638;37.670;2022-12-29T04:05:23;5.28;;;1.80;;
34200;SDS011;20469;55.638;37.670;2022-12-29T04:07:50;9.73;;;2.13;;
34200;SDS011;20469;55.638;37.670;2022-12-29T04:10:17;5.00;;;1.70;;
34200;SDS011;20469;55.638;37.670;2022-12-29T04:12:44;6.63;;;2.00;;
34200;SDS011;20469;55.638;37.670;2022-12-29T04:15:13;7.03;;;2.35;;
34200;SDS011;20469;55.638;37.670;2022-12-29T04:17:40;4.45;;;1.90;;
34200;SDS011;20469;55.638;37.670;2022-12-29T04:20:07;5.85;;;1.80;;
34200;SDS011;20469;55.638;37.670;2022-12-29T04:22:58;5.38;;;1.80;;
34200;SDS011;20469;55.638;37.670;2022-12-29T04:25:32;3.88;;;1.90;;
34200;SDS011;20469;55.638;37.670;2022-12-29T04:28:00;6.00;;;1.98;;
34200;SDS011;20469;55.638;37.670;2022-12-29T04:30:28;6.93;;;1.98;;
34200;SDS011;20469;55.638;37.670;2022-12-29T04:32:55;7.00;;;2.13;;
34200;SDS011;20469;55.638;37.670;2022-12-29T04:35:22;5.90;;;2.03;;
34200;SDS011;20469;55.638;37.670;2022-12-29T04:37:49;6.43;;;1.65;;
34200;SDS011;20469;55.638;37.670;2022-12-29T04:40:16;10.63;;;2.60;;
34200;SDS011;20469;55.638;37.670;2022-12-29T04:42:43;5.70;;;2.17;;
34200;SDS011;20469;55.638;37.670;2022-12-29T04:45:11;9.52;;;2.38;;
34200;SDS011;20469;55.638;37.670;2022-12-29T04:47:38;6.63;;;2.08;;
34200;SDS011;20469;55.638;37.670;2022-12-29T04:50:05;5.93;;;2.20;;
34200;SDS011;20469;55.638;37.670;2022-12-29T04:52:33;7.70;;;2.28;;
34200;SDS011;20469;55.638;37.670;2022-12-29T04:55:00;7.45;;;2.20;;
34200;SDS011;20469;55.638;37.670;2022-12-29T04:57:28;5.32;;;2.20;;
34200;SDS011;20469;55.638;37.670;2022-12-29T04:59:56;9.00;;;2.40;;
34200;SDS011;20469;55.638;37.670;2022-12-29T05:02:23;5.53;;;2.47;;
34200;SDS011;20469;55.638;37.670;2022-12-29T05:04:50;7.80;;;2.70;;
34200;SDS011;20469;55.638;37.670;2022-12-29T05:07:18;6.32;;;2.50;;
34200;SDS011;20469;55.638;37.670;2022-12-29T05:09:45;6.75;;;2.42;;
34200;SDS011;20469;55.638;37.670;2022-12-29T05:12:12;7.72;;;2.75;;
34200;SDS011;20469;55.638;37.670;2022-12-29T05:14:40;10.85;;;3.38;;
34200;SDS011;20469;55.638;37.670;2022-12-29T05:17:07;9.05;;;2.72;;
34200;SDS011;20469;55.638;37.670;2022-12-29T05:19:34;10.38;;;2.35;;
34200;SDS011;20469;55.638;37.670;2022-12-29T05:22:01;7.07;;;2.33;;
34200;SDS011;20469;55.638;37.670;2022-12-29T05:24:31;13.30;;;2.95;;
34200;SDS011;20469;55.638;37.670;2022-12-29T05:26:58;11.23;;;2.45;;
34200;SDS011;20469;55.638;37.670;2022-12-29T05:29:26;12.43;;;2.65;;
34200;SDS011;20469;55.638;37.670;2022-12-29T05:31:53;14.85;;;2.58;;
34200;SDS011;20469;55.638;37.670;2022-12-29T05:34:20;8.57;;;2.45;;
34200;SDS011;20469;55.638;37.670;2022-12-29T05:36:47;6.97;;;2.53;;
34200;SDS011;20469;55.638;37.670;2022-12-29T05:39:14;6.10;;;2.42;;
34200;SDS011;20469;55.638;37.670;2022-12-29T05:41:42;10.82;;;3.42;;
34200;SDS011;20469;55.638;37.670;2022-12-29T05:44:10;7.35;;;2.33;;
34200;SDS011;20469;55.638;37.670;2022-12-29T05:46:37;6.65;;;2.53;;
34200;SDS011;20469;55.638;37.670;2022-12-29T05:49:05;7.47;;;2.50;;
34200;SDS011;20469;55.638;37.670;2022-12-29T05:51:32;9.10;;;3.15;;
34200;SDS011;20469;55.638;37.670;2022-12-29T05:53:59;9.25;;;2.78;;
34200;SDS011;20469;55.638;37.670;2022-12-29T05:56:27;5.55;;;2.58;;
34200;SDS011;20469;55.638;37.670;2022-12-29T05:58:54;7.03;;;2.50;;
34200;SDS011;20469;55.638;37.670;2022-12-29T06:01:21;10.02;;;3.03;;
34200;SDS011;20469;55.638;37.670;2022-12-29T06:03:48;8.27;;;3.03;;
34200;SDS011;20469;55.638;37.670;2022-12-29T06:06:16;7.50;;;3.50;;
34200;SDS011;20469;55.638;37.670;2022-12-29T06:08:43;9.55;;;3.00;;
34200;SDS011;20469;55.638;37.670;2022-12-29T06:11:10;6.82;;;2.83;;
34200;SDS011;20469;55.638;37.670;2022-12-29T06:13:38;7.47;;;3.30;;
34200;SDS011;20469;55.638;37.670;2022-12-29T06:16:05;12.15;;;3.85;;
34200;SDS011;20469;55.638;37.670;2022-12-29T06:18:33;14.38;;;3.63;;
34200;SDS011;20469;55.638;37.670;2022-12-29T06:21:01;12.20;;;3.35;;
34200;SDS011;20469;55.638;37.670;2022-12-29T06:23:28;10.77;;;3.30;;
34200;SDS011;20469;55.638;37.670;2022-12-29T06:25:55;8.32;;;3.28;;
34200;SDS011;20469;55.638;37.670;2022-12-29T06:28:23;10.32;;;4.05;;
34200;SDS011;20469;55.638;37.670;2022-12-29T06:30:51;11.50;;;4.65;;
34200;SDS011;20469;55.638;37.670;2022-12-29T06:33:18;10.93;;;4.28;;
34200;SDS011;20469;55.638;37.670;2022-12-29T06:35:45;10.85;;;3.85;;
34200;SDS011;20469;55.638;37.670;2022-12-29T06:38:12;11.02;;;4.15;;
34200;SDS011;20469;55.638;37.670;2022-12-29T06:40:41;9.98;;;4.50;;
34200;SDS011;20469;55.638;37.670;2022-12-29T06:43:11;13.82;;;4.18;;
34200;SDS011;20469;55.638;37.670;2022-12-29T06:45:39;9.77;;;3.55;;
34200;SDS011;20469;55.638;37.670;2022-12-29T06:48:06;7.28;;;3.95;;
34200;SDS011;20469;55.638;37.670;2022-12-29T06:50:34;7.78;;;3.80;;
34200;SDS011;20469;55.638;37.670;2022-12-29T06:53:01;9.65;;;4.07;;
34200;SDS011;20469;55.638;37.670;2022-12-29T06:55:29;10.23;;;3.50;;
34200;SDS011;20469;55.638;37.670;2022-12-29T06:57:56;6.95;;;4.13;;
34200;SDS011;20469;55.638;37.670;2022-12-29T07:00:25;7.80;;;3.20;;
34200;SDS011;20469;55.638;37.670;2022-12-29T07:02:52;6.15;;;3.17;;
34200;SDS011;20469;55.638;37.670;2022-12-29T07:05:22;10.40;;;4.15;;
34200;SDS011;20469;55.638;37.670;2022-12-29T07:07:50;11.20;;;4.25;;
34200;SDS011;20469;55.638;37.670;2022-12-29T07:10:17;8.40;;;3.85;;
34200;SDS011;20469;55.638;37.670;2022-12-29T07:12:44;7.90;;;3.90;;
34200;SDS011;20469;55.638;37.670;2022-12-29T07:15:11;7.30;;;3.60;;
34200;SDS011;20469;55.638;37.670;2022-12-29T07:17:39;10.45;;;4.30;;
34200;SDS011;20469;55.638;37.670;2022-12-29T07:20:06;15.23;;;5.03;;
34200;SDS011;20469;55.638;37.670;2022-12-29T07:22:34;14.60;;;5.40;;
34200;SDS011;20469;55.638;37.670;2022-12-29T07:25:02;8.82;;;4.68;;
34200;SDS011;20469;55.638;37.670;2022-12-29T07:27:29;10.77;;;4.53;;
34200;SDS011;20469;55.638;37.670;2022-12-29T07:29:56;9.55;;;4.47;;
34200;SDS011;20469;55.638;37.670;2022-12-29T07:32:23;8.60;;;4.65;;
34200;SDS011;20469;55.638;37.670;2022-12-29T07:34:51;8.50;;;4.30;;
34200;SDS011;20469;55.638;37.670;2022-12-29T07:37:18;8.95;;;4.57;;
34200;SDS011;20469;55.638;37.670;2022-12-29T07:39:46;8.75;;;4.93;;
34200;SDS011;20469;55.638;37.670;2022-12-29T07:42:13;8.60;;;4.22;;
34200;SDS011;20469;55.638;37.670;2022-12-29T07:44:40;14.90;;;4.85;;
34200;SDS011;20469;55.638;37.670;2022-12-29T07:47:07;8.68;;;4.13;;
34200;SDS011;20469;55.638;37.670;2022-12-29T07:49:35;6.68;;;3.95;;
34200;SDS011;20469;55.638;37.670;2022-12-29T07:52:02;8.98;;;4.25;;
34200;SDS011;20469;55.638;37.670;2022-12-29T07:54:29;9.40;;;4.50;;
34200;SDS011;20469;55.638;37.670;2022-12-29T07:56:56;10.80;;;4.95;;
34200;SDS011;20469;55.638;37.670;2022-12-29T07:59:26;9.10;;;4.57;;
34200;SDS011;20469;55.638;37.670;2022-12-29T08:01:53;11.48;;;4.72;;
34200;SDS011;20469;55.638;37.670;2022-12-29T08:04:20;9.57;;;4.93;;
34200;SDS011;20469;55.638;37.670;2022-12-29T08:06:49;13.40;;;7.95;;
34200;SDS011;20469;55.638;37.670;2022-12-29T08:09:16;10.32;;;5.22;;
34200;SDS011;20469;55.638;37.670;2022-12-29T08:14:16;13.80;;;5.90;;
34200;SDS011;20469;55.638;37.670;2022-12-29T08:16:44;8.68;;;5.25;;
34200;SDS011;20469;55.638;37.670;2022-12-29T08:19:12;9.95;;;6.07;;
34200;SDS011;20469;55.638;37.670;2022-12-29T08:21:39;13.02;;;6.70;;
34200;SDS011;20469;55.638;37.670;2022-12-29T08:24:07;12.48;;;5.63;;
34200;SDS011;20469;55.638;37.670;2022-12-29T08:26:35;8.02;;;5.75;;
34200;SDS011;20469;55.638;37.670;2022-12-29T08:29:02;13.02;;;6.93;;
34200;SDS011;20469;55.638;37.670;2022-12-29T08:31:29;9.07;;;6.68;;
34200;SDS011;20469;55.638;37.670;2022-12-29T08:33:56;13.10;;;6.95;;
34200;SDS011;20469;55.638;37.670;2022-12-29T08:36:24;9.65;;;6.15;;
34200;SDS011;20469;55.638;37.670;2022-12-29T08:38:51;11.30;;;6.07;;
34200;SDS011;20469;55.638;37.670;2022-12-29T08:41:18;9.45;;;5.10;;
34200;SDS011;20469;55.638;37.670;2022-12-29T08:43:46;11.70;;;5.53;;
34200;SDS011;20469;55.638;37.670;2022-12-29T08:46:14;7.57;;;4.43;;
34200;SDS011;20469;55.638;37.670;2022-12-29T08:48:42;11.48;;;5.13;;
34200;SDS011;20469;55.638;37.670;2022-12-29T08:51:09;14.40;;;5.40;;
34200;SDS011;20469;55.638;37.670;2022-12-29T08:53:36;10.73;;;4.70;;
34200;SDS011;20469;55.638;37.670;2022-12-29T08:56:03;13.85;;;4.82;;
34200;SDS011;20469;55.638;37.670;2022-12-29T08:58:31;8.23;;;4.38;;
34200;SDS011;20469;55.638;37.670;2022-12-29T09:00:58;9.68;;;4.38;;
34200;SDS011;20469;55.638;37.670;2022-12-29T09:03:26;9.25;;;3.95;;
34200;SDS011;20469;55.638;37.670;2022-12-29T09:06:14;7.05;;;3.92;;
34200;SDS011;20469;55.638;37.670;2022-12-29T09:08:43;8.05;;;4.47;;
34200;SDS011;20469;55.638;37.670;2022-12-29T09:11:15;8.45;;;3.80;;
34200;SDS011;20469;55.638;37.670;2022-12-29T09:13:47;10.55;;;4.90;;
34200;SDS011;20469;55.638;37.670;2022-12-29T09:16:14;10.38;;;4.57;;
34200;SDS011;20469;55.638;37.670;2022-12-29T09:18:42;10.05;;;4.57;;
34200;SDS011;20469;55.638;37.670;2022-12-29T09:21:10;11.02;;;4.57;;
34200;SDS011;20469;55.638;37.670;2022-12-29T09:23:38;8.52;;;4.47;;
34200;SDS011;20469;55.638;37.670;2022-12-29T09:26:06;11.27;;;4.90;;
34200;SDS011;20469;55.638;37.670;2022-12-29T09:28:34;9.98;;;5.03;;
34200;SDS011;20469;55.638;37.670;2022-12-29T09:31:01;13.35;;;5.93;;
34200;SDS011;20469;55.638;37.670;2022-12-29T09:33:29;10.45;;;4.10;;
34200;SDS011;20469;55.638;37.670;2022-12-29T09:35:57;7.68;;;3.90;;
34200;SDS011;20469;55.638;37.670;2022-12-29T09:38:25;8.48;;;4.80;;
34200;SDS011;20469;55.638;37.670;2022-12-29T09:40:58;7.32;;;3.60;;
34200;SDS011;20469;55.638;37.670;2022-12-29T09:48:45;9.38;;;4.13;;
34200;SDS011;20469;55.638;37.670;2022-12-29T09:51:17;8.63;;;3.88;;
34200;SDS011;20469;55.638;37.670;2022-12-29T09:56:29;10.52;;;4.32;;
34200;SDS011;20469;55.638;37.670;2022-12-29T09:58:58;7.88;;;4.00;;
34200;SDS011;20469;55.638;37.670;2022-12-29T10:01:44;11.27;;;4.63;;
34200;SDS011;20469;55.638;37.670;2022-12-29T10:04:18;15.40;;;4.53;;
34200;SDS011;20469;55.638;37.670;2022-12-29T10:20:38;12.55;;;4.88;;
34200;SDS011;20469;55.638;37.670;2022-12-29T10:23:33;8.65;;;3.90;;
34200;SDS011;20469;55.638;37.670;2022-12-29T10:26:09;8.25;;;4.47;;
34200;SDS011;20469;55.638;37.670;2022-12-29T10:29:02;6.32;;;4.57;;
34200;SDS011;20469;55.638;37.670;2022-12-29T10:34:35;7.85;;;4.13;;
34200;SDS011;20469;55.638;37.670;2022-12-29T10:39:48;10.30;;;4.65;;
34200;SDS011;20469;55.638;37.670;2022-12-29T10:42:21;17.25;;;5.65;;
34200;SDS011;20469;55.638;37.670;2022-12-29T10:44:54;7.15;;;4.20;;
34200;SDS011;20469;55.638;37.670;2022-12-29T10:47:26;8.48;;;4.38;;
34200;SDS011;20469;55.638;37.670;2022-12-29T10:49:57;9.73;;;4.57;;
34200;SDS011;20469;55.638;37.670;2022-12-29T10:52:29;9.13;;;4.47;;
34200;SDS011;20469;55.638;37.670;2022-12-29T10:55:02;7.75;;;4.20;;
34200;SDS011;20469;55.638;37.670;2022-12-29T11:00:13;6.72;;;4.43;;
34200;SDS011;20469;55.638;37.670;2022-12-29T11:06:16;14.48;;;7.35;;
34200;SDS011;20469;55.638;37.670;2022-12-29T11:08:33;8.77;;;4.60;;
34200;SDS011;20469;55.638;37.670;2022-12-29T11:11:05;7.57;;;4.75;;
34200;SDS011;20469;55.638;37.670;2022-12-29T11:13:35;10.60;;;4.75;;
34200;SDS011;20469;55.638;37.670;2022-12-29T11:16:14;8.68;;;4.38;;
34200;SDS011;20469;55.638;37.670;2022-12-29T11:18:53;7.82;;;4.75;;
34200;SDS011;20469;55.638;37.670;2022-12-29T11:24:00;10.35;;;5.20;;
34200;SDS011;20469;55.638;37.670;2022-12-29T11:26:32;9.77;;;5.10;;
34200;SDS011;20469;55.638;37.670;2022-12-29T11:31:44;10.20;;;5.03;;
34200;SDS011;20469;55.638;37.670;2022-12-29T11:34:17;9.02;;;5.15;;
34200;SDS011;20469;55.638;37.670;2022-12-29T11:36:45;10.55;;;5.20;;
34200;SDS011;20469;55.638;37.670;2022-12-29T11:39:23;7.53;;;5.05;;
34200;SDS011;20469;55.638;37.670;2022-12-29T11:41:56;8.98;;;5.15;;
34200;SDS011;20469;55.638;37.670;2022-12-29T11:44:23;9.63;;;5.07;;
34200;SDS011;20469;55.638;37.670;2022-12-29T11:46:53;12.20;;;5.53;;
34200;SDS011;20469;55.638;37.670;2022-12-29T11:49:24;9.88;;;5.13;;
34200;SDS011;20469;55.638;37.670;2022-12-29T11:51:53;9.68;;;5.07;;
34200;SDS011;20469;55.638;37.670;2022-12-29T11:54:25;9.68;;;5.15;;
34200;SDS011;20469;55.638;37.670;2022-12-29T11:57:12;8.55;;;5.35;;
34200;SDS011;20469;55.638;37.670;2022-12-29T11:59:43;8.27;;;5.20;;
34200;SDS011;20469;55.638;37.670;2022-12-29T12:08:01;7.97;;;4.95;;
34200;SDS011;20469;55.638;37.670;2022-12-29T12:10:56;10.80;;;5.60;;
34200;SDS011;20469;55.638;37.670;2022-12-29T12:16:33;10.20;;;5.97;;
34200;SDS011;20469;55.638;37.670;2022-12-29T12:19:14;10.35;;;5.43;;
34200;SDS011;20469;55.638;37.670;2022-12-29T12:21:56;8.55;;;5.82;;
34200;SDS011;20469;55.638;37.670;2022-12-29T12:24:43;11.07;;;5.43;;
34200;SDS011;20469;55.638;37.670;2022-12-29T12:27:21;10.13;;;6.63;;
34200;SDS011;20469;55.638;37.670;2022-12-29T12:35:13;13.50;;;7.00;;
34200;SDS011;20469;55.638;37.670;2022-12-29T12:40:52;13.25;;;6.40;;
34200;SDS011;20469;55.638;37.670;2022-12-29T12:43:40;11.65;;;6.45;;
34200;SDS011;20469;55.638;37.670;2022-12-29T12:46:42;8.38;;;5.50;;
34200;SDS011;20469;55.638;37.670;2022-12-29T12:54:59;12.70;;;6.25;;
34200;SDS011;20469;55.638;37.670;2022-12-29T13:00:17;12.52;;;6.45;;
34200;SDS011;20469;55.638;37.670;2022-12-29T13:02:49;11.05;;;6.18;;
34200;SDS011;20469;55.638;37.670;2022-12-29T13:05:24;10.77;;;5.97;;
34200;SDS011;20469;55.638;37.670;2022-12-29T13:16:41;13.20;;;6.75;;
34200;SDS011;20469;55.638;37.670;2022-12-29T13:19:29;13.88;;;6.78;;
34200;SDS011;20469;55.638;37.670;2022-12-29T13:25:19;11.40;;;6.97;;
34200;SDS011;20469;55.638;37.670;2022-12-29T13:36:48;14.70;;;7.25;;
34200;SDS011;20469;55.638;37.670;2022-12-29T13:39:23;13.43;;;6.65;;
34200;SDS011;20469;55.638;37.670;2022-12-29T13:42:04;13.77;;;7.03;;
34200;SDS011;20469;55.638;37.670;2022-12-29T13:44:43;15.25;;;6.82;;
34200;SDS011;20469;55.638;37.670;2022-12-29T13:47:31;14.13;;;7.25;;
34200;SDS011;20469;55.638;37.670;2022-12-29T13:50:05;13.32;;;7.53;;
34200;SDS011;20469;55.638;37.670;2022-12-29T13:52:43;15.35;;;8.25;;
34200;SDS011;20469;55.638;37.670;2022-12-29T14:06:04;16.65;;;8.25;;
34200;SDS011;20469;55.638;37.670;2022-12-29T14:08:43;17.88;;;8.50;;
34200;SDS011;20469;55.638;37.670;2022-12-29T14:11:11;23.75;;;9.85;;
34200;SDS011;20469;55.638;37.670;2022-12-29T14:13:43;19.20;;;9.27;;
34200;SDS011;20469;55.638;37.670;2022-12-29T14:16:25;21.73;;;9.02;;
34200;SDS011;20469;55.638;37.670;2022-12-29T14:18:56;23.00;;;9.48;;
34200;SDS011;20469;55.638;37.670;2022-12-29T14:21:32;19.58;;;9.57;;
34200;SDS011;20469;55.638;37.670;2022-12-29T14:34:54;19.08;;;10.38;;
34200;SDS011;20469;55.638;37.670;2022-12-29T14:40:28;26.83;;;11.05;;
34200;SDS011;20469;55.638;37.670;2022-12-29T14:42:49;21.95;;;10.98;;
34200;SDS011;20469;55.638;37.670;2022-12-29T14:47:46;20.45;;;10.35;;
34200;SDS011;20469;55.638;37.670;2022-12-29T14:55:32;19.27;;;10.00;;
34200;SDS011;20469;55.638;37.670;2022-12-29T14:58:04;18.67;;;9.93;;
34200;SDS011;20469;55.638;37.670;2022-12-29T15:00:39;24.75;;;11.02;;
34200;SDS011;20469;55.638;37.670;2022-12-29T15:03:13;22.35;;;10.70;;
34200;SDS011;20469;55.638;37.670;2022-12-29T15:08:20;21.98;;;10.68;;
34200;SDS011;20469;55.638;37.670;2022-12-29T15:13:41;26.65;;;10.63;;
34200;SDS011;20469;55.638;37.670;2022-12-29T15:16:52;19.17;;;10.35;;
34200;SDS011;20469;55.638;37.670;2022-12-29T15:19:03;24.75;;;10.15;;
34200;SDS011;20469;55.638;37.670;2022-12-29T15:21:32;23.13;;;9.85;;
34200;SDS011;20469;55.638;37.670;2022-12-29T15:24:05;27.20;;;10.88;;
34200;SDS011;20469;55.638;37.670;2022-12-29T15:26:36;24.80;;;10.95;;
34200;SDS011;20469;55.638;37.670;2022-12-29T15:29:05;26.48;;;12.00;;
34200;SDS011;20469;55.638;37.670;2022-12-29T15:31:52;25.92;;;11.68;;
34200;SDS011;20469;55.638;37.670;2022-12-29T15:34:20;33.80;;;13.75;;
34200;SDS011;20469;55.638;37.670;2022-12-29T15:36:49;37.55;;;15.95;;
34200;SDS011;20469;55.638;37.670;2022-12-29T15:39:17;46.88;;;18.48;;
34200;SDS011;20469;55.638;37.670;2022-12-29T15:41:56;48.80;;;17.80;;
34200;SDS011;20469;55.638;37.670;2022-12-29T15:44:37;49.17;;;18.42;;
34200;SDS011;20469;55.638;37.670;2022-12-29T15:47:19;58.80;;;21.52;;
34200;SDS011;20469;55.638;37.670;2022-12-29T15:49:49;58.75;;;22.42;;
34200;SDS011;20469;55.638;37.670;2022-12-29T15:52:20;69.25;;;24.08;;
34200;SDS011;20469;55.638;37.670;2022-12-29T15:54:49;69.38;;;24.42;;
34200;SDS011;20469;55.638;37.670;2022-12-29T15:57:41;54.20;;;22.92;;
34200;SDS011;20469;55.638;37.670;2022-12-29T16:03:13;56.95;;;22.60;;
34200;SDS011;20469;55.638;37.670;2022-12-29T16:05:42;63.05;;;21.42;;
34200;SDS011;20469;55.638;37.670;2022-12-29T16:08:27;55.60;;;21.77;;
34200;SDS011;20469;55.638;37.670;2022-12-29T16:11:00;52.10;;;20.10;;
34200;SDS011;20469;55.638;37.670;2022-12-29T16:16:08;51.53;;;19.77;;
34200;SDS011;20469;55.638;37.670;2022-12-29T16:18:58;46.40;;;19.38;;
34200;SDS011;20469;55.638;37.670;2022-12-29T16:21:36;49.30;;;18.67;;
34200;SDS011;20469;55.638;37.670;2022-12-29T16:24:14;44.67;;;18.73;;
34200;SDS011;20469;55.638;37.670;2022-12-29T16:26:51;47.17;;;19.60;;
34200;SDS011;20469;55.638;37.670;2022-12-29T16:29:24;44.40;;;17.50;;
34200;SDS011;20469;55.638;37.670;2022-12-29T16:31:55;49.45;;;18.63;;
34200;SDS011;20469;55.638;37.670;2022-12-29T16:34:33;46.47;;;18.05;;
34200;SDS011;20469;55.638;37.670;2022-12-29T16:39:35;42.53;;;16.55;;
34200;SDS011;20469;55.638;37.670;2022-12-29T16:48:45;40.00;;;16.13;;
34200;SDS011;20469;55.638;37.670;2022-12-29T16:50:47;35.97;;;15.25;;
34200;SDS011;20469;55.638;37.670;2022-12-29T16:53:20;31.65;;;15.55;;
34200;SDS011;20469;55.638;37.670;2022-12-29T16:55:53;33.42;;;14.52;;
34200;SDS011;20469;55.638;37.670;2022-12-29T16:58:25;29.70;;;14.05;;
34200;SDS011;20469;55.638;37.670;2022-12-29T17:00:58;27.30;;;13.63;;
34200;SDS011;20469;55.638;37.670;2022-12-29T17:03:33;30.40;;;14.45;;
34200;SDS011;20469;55.638;37.670;2022-12-29T17:06:05;29.10;;;14.50;;
34200;SDS011;20469;55.638;37.670;2022-12-29T17:08:40;30.48;;;14.82;;
34200;SDS011;20469;55.638;37.670;2022-12-29T17:11:19;35.95;;;14.35;;
34200;SDS011;20469;55.638;37.670;2022-12-29T17:22:49;36.58;;;15.60;;
34200;SDS011;20469;55.638;37.670;2022-12-29T17:25:21;36.40;;;15.00;;
34200;SDS011;20469;55.638;37.670;2022-12-29T17:28:01;41.03;;;15.27;;
34200;SDS011;20469;55.638;37.670;2022-12-29T17:30:31;36.65;;;15.13;;
34200;SDS011;20469;55.638;37.670;2022-12-29T17:33:02;37.20;;;15.98;;
34200;SDS011;20469;55.638;37.670;2022-12-29T17:35:32;40.47;;;15.18;;
34200;SDS011;20469;55.638;37.670;2022-12-29T17:37:59;40.30;;;16.73;;
34200;SDS011;20469;55.638;37.670;2022-12-29T17:40:27;39.00;;;15.80;;
34200;SDS011;20469;55.638;37.670;2022-12-29T17:42:58;39.75;;;16.17;;
34200;SDS011;20469;55.638;37.670;2022-12-29T17:45:26;37.90;;;16.17;;
34200;SDS011;20469;55.638;37.670;2022-12-29T17:47:56;39.50;;;14.80;;
34200;SDS011;20469;55.638;37.670;2022-12-29T17:50:28;37.22;;;15.75;;
34200;SDS011;20469;55.638;37.670;2022-12-29T17:53:04;31.75;;;14.38;;
34200;SDS011;20469;55.638;37.670;2022-12-29T17:55:33;29.55;;;14.45;;
34200;SDS011;20469;55.638;37.670;2022-12-29T17:58:10;37.58;;;15.65;;
34200;SDS011;20469;55.638;37.670;2022-12-29T18:00:49;42.83;;;15.55;;
34200;SDS011;20469;55.638;37.670;2022-12-29T18:03:20;33.33;;;15.93;;
34200;SDS011;20469;55.638;37.670;2022-12-29T18:05:53;34.63;;;15.30;;
34200;SDS011;20469;55.638;37.670;2022-12-29T18:08:21;34.75;;;14.90;;
34200;SDS011;20469;55.638;37.670;2022-12-29T18:10:52;33.20;;;15.13;;